Nambouwalu, Fiji
Current Conditions -  °F | °C
As of 8:00 AM on Friday 30 Jan 2015 (Local Time) from NFNA Reporting Station
Scattered Clouds Scattered Clouds  
Wind Chill: 79°   Ceiling: Unl
Heat Index: 82°   Visibility: 25mi
Dew Point: 75°   Wind: 0mph
Humidity: 89%   Direction: NA
Pressure: 29.68"   Gusts: NA
Location:  16.99°S, 178.69°E
Report Text: NFNA 292000Z 00000KT 40KM SCT022 26/24 Q1005 RMK RR NIL
Loading
Personal Weather Stations






























Interactive Weather Map New forecast layout! Learn more

10-Day Weather Forecast

Advertisements
Track Severe Weather on mobile